Time;durP1;ratioP1;P1;durP2;ratioP2;P2;SDS_P1;SDS_P2;PMS_P1;PMS_P2;Temp;Humidity;BMP_temperature;BMP_pressure;BME280_temperature;BME280_humidity;BME280_pressure;Samples;Min_cycle;Max_cycle;Signal;HPM_P1;HPM_P2
2022/10/27 00:00:28;;;;;;;3.08;2.00;;;12.70;99.90;;;;;;4954530;29;20616;-65
2022/10/27 00:02:53;;;;;;;5.90;1.90;;;12.70;99.90;;;;;;4954801;29;20043;-65
2022/10/27 00:05:21;;;;;;;4.00;1.80;;;12.80;99.90;;;;;;4937234;29;20043;-65
2022/10/27 00:07:47;;;;;;;4.10;1.58;;;12.80;99.90;;;;;;4937088;29;20075;-65
2022/10/27 00:10:13;;;;;;;5.40;1.73;;;12.70;99.90;;;;;;4954689;29;20102;-65
2022/10/27 00:12:39;;;;;;;2.88;1.70;;;12.70;99.90;;;;;;4921424;29;20451;-65
2022/10/27 00:15:05;;;;;;;4.32;2.30;;;12.70;99.90;;;;;;4937185;29;20470;-67
2022/10/27 00:17:30;;;;;;;3.40;2.30;;;12.70;99.90;;;;;;4954588;29;20039;-65
2022/10/27 00:19:56;;;;;;;3.13;2.10;;;12.70;99.90;;;;;;4937032;29;20131;-68
2022/10/27 00:22:22;;;;;;;3.60;2.03;;;12.70;99.90;;;;;;4954242;29;20074;-65
2022/10/27 00:24:48;;;;;;;2.95;2.15;;;12.60;99.90;;;;;;4954487;29;20043;-65
2022/10/27 00:27:14;;;;;;;6.65;1.90;;;12.70;99.90;;;;;;4954453;29;20039;-66
2022/10/27 00:29:39;;;;;;;5.65;2.22;;;12.70;99.90;;;;;;4954453;29;20050;-67
2022/10/27 00:32:05;;;;;;;7.22;2.38;;;12.70;99.90;;;;;;4936856;29;20585;-66
2022/10/27 00:34:31;;;;;;;3.65;1.70;;;12.70;99.90;;;;;;4954465;29;20380;-66
2022/10/27 00:36:56;;;;;;;5.43;2.30;;;12.70;99.90;;;;;;4954399;29;20059;-66
2022/10/27 00:39:22;;;;;;;3.17;2.13;;;12.70;99.90;;;;;;4937022;29;20051;-66
2022/10/27 00:41:48;;;;;;;5.53;2.25;;;12.70;99.90;;;;;;4954264;29;20388;-66
2022/10/27 00:44:33;;;;;;;3.30;2.20;;;13.10;99.90;;;;;;4955203;28;20043;-66
2022/10/27 00:47:05;;;;;;;7.35;2.28;;;12.70;99.90;;;;;;4940557;29;20057;-66
2022/10/27 00:49:36;;;;;;;4.82;2.20;;;13.10;99.90;;;;;;4957897;29;20492;-66
2022/10/27 00:52:05;;;;;;;4.82;2.55;;;12.80;99.90;;;;;;4958206;29;20071;-66
2022/10/27 00:54:38;;;;;;;3.92;2.13;;;12.80;99.90;;;;;;4958127;29;20050;-66
2022/10/27 00:57:05;;;;;;;4.45;2.42;;;12.80;99.90;;;;;;4958077;29;20050;-66
2022/10/27 00:59:31;;;;;;;2.95;1.92;;;12.90;99.90;;;;;;4940477;29;20051;-66
2022/10/27 01:01:57;;;;;;;3.83;2.08;;;12.90;99.90;;;;;;4940522;29;20047;-66
2022/10/27 01:04:54;;;;;;;6.25;2.72;;;12.90;99.90;;;;;;4940835;29;20184;-66
2022/10/27 01:07:21;;;;;;;8.73;2.95;;;12.90;99.90;;;;;;4951778;29;20083;-66
2022/10/27 01:09:47;;;;;;;8.77;2.50;;;12.90;99.90;;;;;;4957632;29;20035;-66
2022/10/27 01:12:13;;;;;;;5.88;2.75;;;12.90;99.90;;;;;;4940328;29;20055;-66
2022/10/27 01:14:39;;;;;;;6.53;2.65;;;12.90;99.90;;;;;;4940244;29;20054;-66
2022/10/27 01:17:23;;;;;;;4.80;2.55;;;12.90;99.90;;;;;;4940209;29;20046;-66
2022/10/27 01:20:07;;;;;;;4.55;2.58;;;12.80;99.90;;;;;;4957621;29;20051;-66
2022/10/27 01:22:48;;;;;;;4.70;2.40;;;12.80;99.90;;;;;;4940352;29;20496;-66
2022/10/27 01:25:38;;;;;;;3.08;2.10;;;12.80;99.90;;;;;;4925857;29;20551;-66
2022/10/27 01:28:42;;;;;;;5.45;2.50;;;12.70;99.90;;;;;;4939999;29;20051;-66
2022/10/27 01:31:21;;;;;;;6.32;2.53;;;12.80;99.90;;;;;;4957279;29;20138;-66
2022/10/27 01:33:52;;;;;;;4.90;2.45;;;12.90;99.90;;;;;;4957379;29;20043;-68
2022/10/27 01:36:26;;;;;;;5.53;2.55;;;12.90;99.90;;;;;;4957083;29;20051;-66
2022/10/27 01:39:17;;;;;;;4.97;2.80;;;12.90;99.90;;;;;;4957077;29;20126;-66
2022/10/27 01:41:49;;;;;;;6.45;2.50;;;13.00;99.90;;;;;;4957341;29;20213;-66
2022/10/27 01:44:22;;;;;;;6.40;2.90;;;13.00;99.90;;;;;;4957267;29;20035;-66
2022/10/27 01:46:49;;;;;;;5.82;2.72;;;13.30;99.90;;;;;;4957100;29;20047;-66
2022/10/27 01:49:14;;;;;;;3.78;2.38;;;13.10;99.90;;;;;;4957095;29;20051;-66
2022/10/27 01:51:40;;;;;;;3.40;2.38;;;13.10;99.90;;;;;;4956813;29;20187;-66
2022/10/27 01:54:06;;;;;;;9.02;3.15;;;13.20;99.90;;;;;;4939542;29;20035;-66
2022/10/27 01:56:44;;;;;;;6.70;2.63;;;13.20;99.90;;;;;;4956761;28;20098;-66
2022/10/27 01:59:41;;;;;;;4.93;3.17;;;13.30;99.90;;;;;;4956717;29;20050;-66
2022/10/27 02:02:22;;;;;;;3.42;2.15;;;13.30;99.90;;;;;;4956588;29;20051;-66
2022/10/27 02:04:54;;;;;;;5.85;3.03;;;13.30;99.90;;;;;;4956593;29;20069;-66
2022/10/27 02:07:52;;;;;;;4.55;2.13;;;13.30;99.90;;;;;;4956477;29;20039;-66
2022/10/27 02:10:20;;;;;;;5.57;2.65;;;13.40;99.90;;;;;;4920330;29;20051;-66
2022/10/27 02:12:47;;;;;;;4.97;2.95;;;13.40;99.90;;;;;;4956702;29;20394;-66
2022/10/27 02:15:36;;;;;;;7.03;2.78;;;13.40;99.90;;;;;;4956420;29;20055;-66
2022/10/27 02:18:07;;;;;;;5.22;2.63;;;13.40;99.90;;;;;;4939171;29;20115;-66
2022/10/27 02:20:36;;;;;;;;;;;13.30;99.90;;;;;;4939507;29;20058;-66
2022/10/27 02:23:06;;;;;;;4.82;2.70;;;13.30;99.90;;;;;;4956612;29;20365;-66
2022/10/27 02:25:40;;;;;;;4.23;2.80;;;13.30;99.90;;;;;;4957011;29;20074;-67
2022/10/27 02:28:08;;;;;;;6.47;3.08;;;13.40;99.90;;;;;;4956435;29;20053;-67
2022/10/27 02:30:35;;;;;;;6.65;2.60;;;13.20;99.90;;;;;;4956254;29;20051;-67
2022/10/27 02:33:01;;;;;;;3.50;2.25;;;13.20;99.90;;;;;;4956126;29;20051;-66
2022/10/27 02:35:28;;;;;;;5.00;2.58;;;13.10;99.90;;;;;;4956371;29;20148;-66
2022/10/27 02:37:57;;;;;;;6.75;3.08;;;13.10;99.90;;;;;;4955959;29;20091;-68
2022/10/27 02:40:24;;;;;;;6.35;3.03;;;13.10;99.90;;;;;;4955955;29;20054;-66
2022/10/27 02:42:50;;;;;;;3.58;2.35;;;13.20;99.90;;;;;;4955948;29;20039;-66
2022/10/27 02:45:16;;;;;;;5.57;2.50;;;13.10;99.90;;;;;;4956138;29;20049;-66
2022/10/27 02:47:42;;;;;;;4.50;2.42;;;13.20;99.90;;;;;;4938881;29;20483;-66
2022/10/27 02:50:08;;;;;;;3.33;2.38;;;13.20;99.90;;;;;;4955969;29;20046;-66
2022/10/27 02:52:33;;;;;;;3.30;2.25;;;13.20;99.90;;;;;;4938411;29;20050;-66
2022/10/27 02:54:59;;;;;;;6.47;2.67;;;13.20;99.90;;;;;;4955679;29;20043;-66
2022/10/27 02:57:24;;;;;;;4.53;2.58;;;13.20;99.90;;;;;;4955938;29;20053;-66
2022/10/27 02:59:50;;;;;;;8.40;3.33;;;13.20;99.90;;;;;;4955819;29;20043;-66
2022/10/27 03:02:16;;;;;;;7.10;2.95;;;13.10;99.90;;;;;;4955809;29;20043;-67
2022/10/27 03:04:41;;;;;;;4.60;2.72;;;13.00;99.90;;;;;;4955841;29;20415;-66
2022/10/27 03:07:07;;;;;;;5.28;2.72;;;13.00;99.90;;;;;;4937694;29;20047;-66
2022/10/27 03:09:33;;;;;;;4.53;2.17;;;13.00;99.90;;;;;;4955659;29;20054;-66
2022/10/27 03:11:58;;;;;;;3.40;2.20;;;13.00;99.90;;;;;;4955641;29;20057;-66
2022/10/27 03:14:24;;;;;;;7.65;2.85;;;13.00;99.90;;;;;;4955614;29;20050;-66
2022/10/27 03:16:50;;;;;;;8.70;2.60;;;13.00;99.90;;;;;;4955506;29;20043;-67
2022/10/27 03:19:15;;;;;;;7.82;2.85;;;13.00;99.90;;;;;;4955119;29;20035;-67
2022/10/27 03:21:41;;;;;;;9.00;2.88;;;13.00;99.90;;;;;;4937986;29;20047;-66
2022/10/27 03:24:06;;;;;;;4.85;3.03;;;13.00;99.90;;;;;;4955356;29;20391;-66
2022/10/27 03:26:32;;;;;;;10.55;3.00;;;13.00;99.90;;;;;;4937886;29;20054;-66
2022/10/27 03:28:58;;;;;;;6.68;2.85;;;12.90;99.90;;;;;;4954993;29;20047;-66
2022/10/27 03:31:23;;;;;;;5.15;2.55;;;12.90;99.90;;;;;;4937533;29;20130;-66
2022/10/27 03:33:49;;;;;;;4.93;2.75;;;12.90;99.90;;;;;;4937670;29;20062;-66
2022/10/27 03:36:15;;;;;;;5.03;3.35;;;12.90;99.90;;;;;;4954939;29;20043;-66
2022/10/27 03:38:41;;;;;;;4.43;2.75;;;12.90;99.90;;;;;;4954860;29;20050;-67
2022/10/27 03:41:06;;;;;;;5.15;2.97;;;12.90;99.90;;;;;;4954874;29;20078;-66
2022/10/27 03:43:32;;;;;;;4.47;2.67;;;12.90;99.90;;;;;;4955053;29;20038;-66
2022/10/27 03:45:58;;;;;;;6.43;3.03;;;12.90;99.90;;;;;;4954934;29;20487;-66
2022/10/27 03:48:23;;;;;;;4.60;3.03;;;12.90;99.90;;;;;;4937308;29;20047;-67
2022/10/27 03:50:50;;;;;;;4.93;3.10;;;12.90;99.90;;;;;;4954645;29;20570;-66
2022/10/27 03:53:17;;;;;;;4.85;3.15;;;12.90;99.90;;;;;;4954890;29;20047;-66
2022/10/27 03:55:43;;;;;;;6.50;3.17;;;12.90;99.90;;;;;;4955152;29;20039;-66
2022/10/27 03:58:12;;;;;;;4.93;2.97;;;12.80;99.90;;;;;;4937350;29;20043;-66
2022/10/27 04:00:38;;;;;;;4.45;2.88;;;12.80;99.90;;;;;;4937546;29;20388;-66
2022/10/27 04:03:04;;;;;;;6.72;3.33;;;13.00;99.90;;;;;;4954818;29;20054;-66
2022/10/27 04:05:30;;;;;;;5.18;3.17;;;12.80;99.90;;;;;;4954350;29;20046;-66
2022/10/27 04:07:55;;;;;;;9.13;3.30;;;12.80;99.90;;;;;;4937219;29;20047;-66
2022/10/27 04:10:21;;;;;;;7.15;2.83;;;12.80;99.90;;;;;;4954710;29;20118;-66
2022/10/27 04:12:48;;;;;;;5.32;2.90;;;12.80;99.90;;;;;;4954616;29;20493;-66
2022/10/27 04:15:14;;;;;;;6.53;3.70;;;12.80;99.90;;;;;;4921507;29;20039;-66
2022/10/27 04:17:39;;;;;;;5.53;3.58;;;12.80;99.90;;;;;;4954493;29;20042;-66
2022/10/27 04:20:05;;;;;;;4.95;2.70;;;12.80;99.90;;;;;;4954543;29;20054;-66
2022/10/27 04:22:32;;;;;;;10.70;3.38;;;12.80;99.90;;;;;;4954553;29;20043;-66
2022/10/27 04:24:57;;;;;;;5.13;3.15;;;12.80;99.90;;;;;;4954486;29;20110;-66
2022/10/27 04:27:23;;;;;;;5.60;3.05;;;12.80;99.90;;;;;;4937277;29;20483;-66
2022/10/27 04:29:48;;;;;;;6.40;3.70;;;12.80;99.90;;;;;;4937380;29;20094;-66
2022/10/27 04:32:14;;;;;;;5.10;3.13;;;12.70;99.90;;;;;;4954110;28;20059;-66
2022/10/27 04:34:40;;;;;;;5.82;3.03;;;12.70;99.90;;;;;;4954398;29;20042;-66
2022/10/27 04:37:05;;;;;;;4.70;3.10;;;12.80;99.90;;;;;;4936939;29;20130;-66
2022/10/27 04:39:31;;;;;;;11.70;3.63;;;12.80;99.90;;;;;;4954408;29;20071;-66
2022/10/27 04:41:57;;;;;;;5.55;3.15;;;12.80;99.90;;;;;;4954347;29;20047;-66
2022/10/27 04:44:22;;;;;;;5.35;3.13;;;12.80;99.90;;;;;;4954667;29;20065;-66
2022/10/27 04:46:48;;;;;;;5.50;3.00;;;12.80;99.90;;;;;;4954237;29;20407;-66
2022/10/27 04:49:14;;;;;;;7.07;3.33;;;12.80;99.90;;;;;;4954290;29;20035;-66
2022/10/27 04:51:39;;;;;;;4.45;3.22;;;12.80;99.90;;;;;;4937157;29;20042;-66
2022/10/27 04:54:05;;;;;;;4.65;3.13;;;12.70;99.90;;;;;;4954271;29;20040;-66
2022/10/27 04:56:31;;;;;;;5.65;3.22;;;12.80;99.90;;;;;;4954263;29;20051;-66
2022/10/27 04:58:56;;;;;;;4.43;3.15;;;12.90;99.90;;;;;;4937167;29;20127;-67
2022/10/27 05:01:22;;;;;;;6.43;3.40;;;12.80;99.90;;;;;;4954249;29;20498;-66
2022/10/27 05:03:49;;;;;;;5.60;3.25;;;12.70;99.90;;;;;;4953902;29;20051;-66
2022/10/27 05:06:15;;;;;;;6.72;3.83;;;12.70;99.90;;;;;;4954116;29;20130;-66
2022/10/27 05:08:40;;;;;;;9.68;3.95;;;12.70;99.90;;;;;;4954104;29;20042;-66
2022/10/27 05:11:06;;;;;;;6.13;3.75;;;12.70;99.90;;;;;;4954130;29;20039;-66
2022/10/27 05:13:32;;;;;;;7.10;3.17;;;12.70;99.90;;;;;;4936726;29;20047;-66
2022/10/27 05:16:03;;;;;;;6.72;3.80;;;12.70;99.90;;;;;;4954108;29;20043;-66
2022/10/27 05:18:29;;;;;;;7.38;3.60;;;12.70;99.90;;;;;;4954125;29;20043;-66
2022/10/27 05:20:55;;;;;;;5.93;3.50;;;12.70;99.90;;;;;;4954068;29;20043;-66
2022/10/27 05:23:21;;;;;;;8.07;3.33;;;12.70;99.90;;;;;;4954048;29;20043;-66
2022/10/27 05:25:55;;;;;;;9.02;3.70;;;12.70;99.90;;;;;;4953921;29;20063;-66
2022/10/27 05:28:21;;;;;;;9.80;4.50;;;12.70;99.90;;;;;;4954026;29;20044;-68
2022/10/27 05:30:47;;;;;;;4.07;3.15;;;12.70;99.90;;;;;;4954956;28;20046;-66
2022/10/27 05:33:14;;;;;;;5.95;3.63;;;12.70;99.90;;;;;;4957556;29;20046;-66
2022/10/27 05:35:40;;;;;;;7.53;3.40;;;12.70;99.90;;;;;;4957295;29;20118;-68
2022/10/27 05:38:06;;;;;;;5.18;3.33;;;12.70;99.90;;;;;;4957396;29;20075;-65
2022/10/27 05:40:34;;;;;;;5.85;3.50;;;12.70;99.90;;;;;;4939955;29;20452;-66
2022/10/27 05:43:01;;;;;;;8.45;3.63;;;12.60;99.90;;;;;;4939863;29;20093;-66
2022/10/27 05:45:27;;;;;;;7.88;3.85;;;12.60;99.90;;;;;;4956982;29;20042;-67
2022/10/27 05:48:01;;;;;;;4.88;3.30;;;12.60;99.90;;;;;;4957153;29;20048;-67
2022/10/27 05:50:29;;;;;;;6.30;3.75;;;12.60;99.90;;;;;;4939678;29;20118;-66
2022/10/27 05:52:54;;;;;;;6.32;3.25;;;12.60;99.90;;;;;;4939575;29;20047;-66
2022/10/27 05:55:22;;;;;;;8.30;3.58;;;12.60;99.90;;;;;;4957067;29;20035;-66
2022/10/27 05:57:54;;;;;;;4.38;3.10;;;12.60;99.90;;;;;;4956838;29;20047;-66
2022/10/27 06:00:21;;;;;;;9.73;3.58;;;12.60;99.90;;;;;;4956759;29;20055;-66
2022/10/27 06:02:47;;;;;;;5.78;3.25;;;12.60;99.90;;;;;;4956634;29;20043;-66
2022/10/27 06:05:13;;;;;;;3.97;3.13;;;12.50;99.90;;;;;;4956976;29;20049;-67
2022/10/27 06:07:38;;;;;;;7.75;3.75;;;12.50;99.90;;;;;;4939498;29;20047;-66
2022/10/27 06:10:04;;;;;;;6.82;3.60;;;12.60;99.90;;;;;;4939733;29;20496;-66
2022/10/27 06:12:30;;;;;;;9.63;3.60;;;12.60;99.90;;;;;;4956554;29;20399;-66
2022/10/27 06:14:56;;;;;;;6.15;3.40;;;12.60;99.90;;;;;;4956746;29;20117;-66
2022/10/27 06:17:21;;;;;;;8.18;3.20;;;12.60;99.90;;;;;;4956465;29;20047;-66
2022/10/27 06:19:47;;;;;;;5.68;3.20;;;12.60;99.90;;;;;;4939031;29;20047;-66
2022/10/27 06:22:12;;;;;;;5.82;3.25;;;12.60;99.90;;;;;;4956536;29;20051;-66
2022/10/27 06:24:38;;;;;;;5.03;2.80;;;12.60;99.90;;;;;;4939421;29;20047;-66
2022/10/27 06:27:04;;;;;;;4.40;3.33;;;12.60;99.90;;;;;;4956423;29;20049;-66
2022/10/27 06:29:29;;;;;;;4.47;2.90;;;12.60;99.90;;;;;;4956362;29;20071;-66
2022/10/27 06:31:55;;;;;;;5.55;2.90;;;12.60;99.90;;;;;;4938725;29;20055;-66
2022/10/27 06:34:21;;;;;;;4.53;3.03;;;12.60;99.90;;;;;;4956311;29;20058;-65
2022/10/27 06:36:46;;;;;;;6.70;3.40;;;12.70;99.90;;;;;;4955972;29;20043;-66
2022/10/27 06:39:12;;;;;;;5.60;3.30;;;12.70;99.90;;;;;;4955963;29;20118;-65
2022/10/27 06:41:38;;;;;;;5.95;2.97;;;12.70;99.90;;;;;;4937919;29;20051;-65
2022/10/27 06:44:03;;;;;;;4.70;3.00;;;12.70;99.90;;;;;;4956036;29;20058;-65
2022/10/27 06:46:29;;;;;;;7.72;3.53;;;12.70;99.90;;;;;;4955998;29;20075;-66
2022/10/27 06:48:55;;;;;;;5.32;2.63;;;12.70;99.90;;;;;;4938948;29;20043;-66
2022/10/27 06:51:20;;;;;;;4.22;2.75;;;13.00;99.90;;;;;;4956093;29;20039;-66
2022/10/27 06:53:46;;;;;;;5.15;2.80;;;12.80;99.90;;;;;;4938903;29;20519;-65
2022/10/27 06:56:12;;;;;;;7.35;3.00;;;12.80;99.90;;;;;;4938782;29;20050;-65
2022/10/27 06:58:38;;;;;;;4.78;2.53;;;12.90;99.90;;;;;;4938451;29;20051;-66
2022/10/27 07:01:04;;;;;;;6.88;3.35;;;13.00;99.90;;;;;;4955818;29;20058;-66
2022/10/27 07:03:33;;;;;;;9.18;3.50;;;13.00;99.90;;;;;;4955590;29;20058;-66
2022/10/27 07:05:59;;;;;;;7.10;3.00;;;13.10;99.90;;;;;;4955651;29;20047;-66
2022/10/27 07:08:25;;;;;;;6.90;3.05;;;13.20;99.90;;;;;;4938304;29;20051;-66
2022/10/27 07:10:51;;;;;;;5.32;2.70;;;13.20;99.90;;;;;;4955719;29;20046;-65
2022/10/27 07:13:17;;;;;;;6.13;3.28;;;13.30;99.90;;;;;;4955672;29;20407;-66
2022/10/27 07:15:43;;;;;;;4.28;2.95;;;13.30;99.90;;;;;;4955592;29;20047;-65
2022/10/27 07:18:09;;;;;;;7.05;2.85;;;13.30;99.90;;;;;;4955544;29;20047;-66
2022/10/27 07:20:39;;;;;;;4.13;2.67;;;13.30;99.90;;;;;;4955540;29;20039;-66
2022/10/27 07:23:06;;;;;;;5.70;2.88;;;13.40;99.90;;;;;;4955460;29;20082;-66
2022/10/27 07:25:33;;;;;;;5.55;3.38;;;13.50;99.90;;;;;;4955378;29;20062;-65
2022/10/27 07:28:01;;;;;;;4.57;2.47;;;13.50;99.90;;;;;;4937818;29;20043;-65
2022/10/27 07:30:30;;;;;;;7.32;2.65;;;13.50;99.90;;;;;;4938194;29;20110;-65
2022/10/27 07:32:57;;;;;;;5.03;2.53;;;13.60;99.90;;;;;;4954804;29;20062;-65
2022/10/27 07:35:23;;;;;;;5.15;2.50;;;13.60;99.90;;;;;;4955214;29;20355;-66
2022/10/27 07:37:49;;;;;;;6.20;3.47;;;13.70;99.90;;;;;;4937989;29;20372;-65
2022/10/27 07:40:17;;;;;;;5.18;2.97;;;13.70;99.90;;;;;;4955092;29;20045;-65
2022/10/27 07:42:45;;;;;;;4.25;2.72;;;13.80;99.90;;;;;;4955081;29;20533;-65
2022/10/27 07:45:12;;;;;;;6.20;2.60;;;13.80;99.90;;;;;;4955071;29;20069;-66
2022/10/27 07:47:49;;;;;;;6.50;2.83;;;13.80;99.90;;;;;;4954557;29;20131;-66
2022/10/27 07:50:16;;;;;;;7.78;3.03;;;13.90;99.90;;;;;;4954922;29;20037;-65
2022/10/27 07:52:42;;;;;;;4.47;2.60;;;14.00;99.90;;;;;;4954677;28;20045;-65
2022/10/27 07:55:09;;;;;;;7.05;3.13;;;13.90;99.90;;;;;;4954588;29;20043;-65
2022/10/27 07:57:35;;;;;;;10.50;2.72;;;14.00;99.90;;;;;;4954567;29;20050;-67
2022/10/27 08:00:01;;;;;;;6.55;3.08;;;14.00;99.90;;;;;;4937547;29;20053;-66
2022/10/27 08:02:26;;;;;;;4.60;2.42;;;14.00;99.90;;;;;;4954465;29;20126;-65
2022/10/27 08:04:53;;;;;;;4.25;3.03;;;14.10;99.90;;;;;;4954795;29;20158;-66
2022/10/27 08:07:19;;;;;;;5.50;3.38;;;14.10;99.90;;;;;;4954695;29;20463;-66
2022/10/27 08:09:45;;;;;;;8.25;3.00;;;14.20;99.90;;;;;;4937419;29;20070;-67
2022/10/27 08:12:10;;;;;;;5.75;3.13;;;14.20;99.90;;;;;;4937219;29;20039;-66
2022/10/27 08:14:36;;;;;;;5.60;2.63;;;14.20;99.90;;;;;;4954607;29;20502;-66
2022/10/27 08:17:02;;;;;;;7.07;3.20;;;14.20;99.90;;;;;;4937147;29;20140;-66
2022/10/27 08:19:27;;;;;;;5.75;2.72;;;14.20;99.90;;;;;;4954545;29;20384;-65
2022/10/27 08:21:53;;;;;;;6.60;2.72;;;14.30;99.90;;;;;;4937491;29;20514;-66
2022/10/27 08:24:19;;;;;;;4.45;2.65;;;14.40;99.90;;;;;;4954559;29;20043;-66
2022/10/27 08:26:44;;;;;;;4.43;2.65;;;14.40;99.90;;;;;;4954340;29;20083;-66
2022/10/27 08:29:10;;;;;;;6.13;2.92;;;14.40;99.90;;;;;;4954526;29;20475;-66
2022/10/27 08:31:35;;;;;;;6.38;3.35;;;14.40;99.90;;;;;;4954163;29;20055;-65
2022/10/27 08:34:01;;;;;;;5.13;3.25;;;14.50;99.90;;;;;;4937210;29;20047;-65
2022/10/27 08:36:27;;;;;;;5.43;2.92;;;14.50;99.90;;;;;;4937349;29;20078;-65
2022/10/27 08:38:52;;;;;;;3.70;2.03;;;14.50;99.90;;;;;;4954379;29;20051;-67
2022/10/27 08:41:37;;;;;;;7.45;2.20;;;14.50;99.90;;;;;;4953990;29;20566;-66
2022/10/27 08:44:22;;;;;;;9.10;2.85;;;14.50;99.90;;;;;;4954139;29;20138;-66
2022/10/27 08:46:58;;;;;;;5.18;2.42;;;14.60;99.90;;;;;;4953972;29;20051;-65
2022/10/27 08:49:33;;;;;;;5.72;2.42;;;14.60;99.90;;;;;;4954336;29;20403;-66
2022/10/27 08:52:21;;;;;;;3.92;2.40;;;14.60;99.90;;;;;;4954294;29;20040;-66
2022/10/27 08:54:54;;;;;;;5.22;2.35;;;14.60;99.90;;;;;;4954268;29;20537;-66
2022/10/27 08:57:25;;;;;;;4.97;2.45;;;14.70;99.90;;;;;;4936674;29;20043;-65
2022/10/27 08:59:56;;;;;;;5.57;2.60;;;14.80;99.90;;;;;;4954195;29;20051;-66
2022/10/27 09:02:40;;;;;;;3.00;1.90;;;14.90;99.90;;;;;;4953972;29;20035;-66
2022/10/27 09:05:24;;;;;;;3.58;2.55;;;15.00;99.90;;;;;;4954694;28;20550;-66
2022/10/27 09:08:05;;;;;;;5.78;2.50;;;15.10;99.90;;;;;;4957632;29;20047;-65
2022/10/27 09:11:00;;;;;;;2.88;2.05;;;15.10;99.90;;;;;;4957918;29;20126;-66
2022/10/27 09:13:44;;;;;;;5.30;2.47;;;15.20;99.90;;;;;;4957516;29;20138;-66
2022/10/27 09:16:16;;;;;;;4.22;2.30;;;15.30;99.90;;;;;;4940537;29;20051;-67
2022/10/27 09:18:47;;;;;;;5.68;2.38;;;15.30;99.90;;;;;;4957759;29;20122;-66
2022/10/27 09:21:17;;;;;;;;;;;15.40;99.90;;;;;;4958160;29;20520;-66
2022/10/27 09:23:49;;;;;;;4.47;2.20;;;15.70;99.90;;;;;;4940419;29;19968;-66
2022/10/27 09:26:16;;;;;;;4.85;2.08;;;;;;;;;;4940074;29;20050;-66
2022/10/27 09:28:45;;;;;;;7.40;2.75;;;;;;;;;;4957286;29;20056;-66
2022/10/27 09:31:16;;;;;;;3.60;1.95;;;;;;;;;;4957096;29;20127;-66
2022/10/27 09:33:47;;;;;;;3.38;1.80;;;;;;;;;;4940322;29;20160;-66
2022/10/27 09:36:13;;;;;;;6.30;2.00;;;16.00;99.90;;;;;;4957506;29;20082;-66
2022/10/27 09:38:39;;;;;;;2.58;1.70;;;16.00;99.90;;;;;;4957412;29;20569;-66
2022/10/27 09:41:06;;;;;;;2.92;1.35;;;16.20;99.90;;;;;;4957350;29;20126;-66
2022/10/27 09:43:32;;;;;;;3.75;2.10;;;16.30;99.90;;;;;;4940027;29;20047;-66
2022/10/27 09:46:08;;;;;;;3.03;1.65;;;16.40;99.90;;;;;;4957183;29;20054;-66
2022/10/27 09:48:35;;;;;;;3.30;1.77;;;16.50;99.90;;;;;;4957245;29;20455;-66
2022/10/27 09:51:16;;;;;;;2.75;1.52;;;16.50;99.90;;;;;;4957176;29;20039;-66
2022/10/27 09:53:42;;;;;;;4.10;1.70;;;16.60;99.90;;;;;;4957119;29;20053;-66
2022/10/27 09:56:15;;;;;;;3.75;1.73;;;16.70;99.90;;;;;;4956815;29;20043;-66
2022/10/27 09:58:45;;;;;;;2.95;1.77;;;16.70;99.90;;;;;;4956751;29;20126;-66
2022/10/27 10:01:12;;;;;;;3.28;1.52;;;16.80;99.90;;;;;;4956766;29;20047;-66
2022/10/27 10:03:38;;;;;;;3.42;1.20;;;16.80;99.90;;;;;;4956667;29;20398;-66
2022/10/27 10:06:21;;;;;;;1.88;1.20;;;16.80;99.90;;;;;;4939277;29;20043;-66
2022/10/27 10:08:47;;;;;;;3.72;1.40;;;16.80;99.90;;;;;;4956875;29;20031;-65
2022/10/27 10:11:22;;;;;;;2.47;1.30;;;16.90;99.90;;;;;;4939094;29;20047;-65
2022/10/27 10:13:59;;;;;;;4.50;1.63;;;17.00;99.90;;;;;;4939272;29;20047;-66
2022/10/27 10:16:28;;;;;;;2.15;1.08;;;17.10;99.90;;;;;;4939122;29;20054;-65
2022/10/27 10:19:12;;;;;;;1.77;1.10;;;17.10;99.90;;;;;;4956714;29;20046;-66
2022/10/27 10:21:59;;;;;;;2.20;1.30;;;17.10;99.90;;;;;;4939134;29;20051;-66
2022/10/27 10:24:26;;;;;;;3.50;1.20;;;17.20;99.90;;;;;;4956522;29;20047;-67
2022/10/27 10:26:57;;;;;;;2.55;1.20;;;17.20;99.90;;;;;;4939094;29;20055;-66
2022/10/27 10:29:31;;;;;;;3.55;1.20;;;17.30;99.90;;;;;;4956613;29;20046;-65
2022/10/27 10:32:13;;;;;;;2.13;1.00;;;17.30;99.90;;;;;;4938993;29;20055;-66
2022/10/27 10:34:41;;;;;;;2.00;1.08;;;17.50;99.90;;;;;;4939207;29;20097;-65
2022/10/27 10:37:32;;;;;;;5.50;1.10;;;17.60;99.90;;;;;;4956082;29;20043;-66
2022/10/27 10:40:13;;;;;;;2.60;0.85;;;17.60;99.90;;;;;;4955916;29;20102;-65
2022/10/27 10:42:42;;;;;;;3.47;1.13;;;17.70;99.90;;;;;;4955902;29;20039;-65
2022/10/27 10:45:20;;;;;;;3.10;0.90;;;17.80;99.90;;;;;;4956098;29;20047;-64
2022/10/27 10:47:49;;;;;;;1.25;0.90;;;17.80;99.90;;;;;;4955726;29;20049;-66
2022/10/27 10:50:15;;;;;;;2.05;0.95;;;17.80;99.90;;;;;;4938682;29;20039;-65
2022/10/27 10:52:49;;;;;;;2.72;1.00;;;17.80;99.90;;;;;;4955813;29;20043;-66
2022/10/27 10:55:26;;;;;;;2.00;1.08;;;17.80;99.90;;;;;;4955793;29;20074;-66
2022/10/27 10:57:55;;;;;;;1.35;0.65;;;17.80;99.90;;;;;;4956014;29;20430;-66
2022/10/27 11:00:21;;;;;;;2.60;0.60;;;17.90;99.90;;;;;;4955541;29;20055;-65
2022/10/27 11:02:59;;;;;;;4.32;1.00;;;17.90;99.90;;;;;;4938335;29;20106;-65
2022/10/27 11:05:32;;;;;;;1.52;0.70;;;18.00;99.90;;;;;;4955536;29;20046;-66
2022/10/27 11:07:59;;;;;;;1.92;0.80;;;18.10;99.90;;;;;;4938298;29;20051;-66
2022/10/27 11:10:29;;;;;;;1.65;0.73;;;18.20;99.90;;;;;;4955480;29;20118;-66
2022/10/27 11:13:05;;;;;;;4.05;0.80;;;18.30;99.90;;;;;;4938480;29;20039;-66
2022/10/27 11:15:42;;;;;;;4.55;1.05;;;18.40;99.90;;;;;;4955631;29;20438;-66
2022/10/27 11:18:28;;;;;;;3.15;0.82;;;18.50;99.90;;;;;;4955316;29;20134;-66
2022/10/27 11:21:14;;;;;;;2.13;0.75;;;;;;;;;;4955619;29;20049;-65
2022/10/27 11:24:04;;;;;;;0.95;0.68;;;18.70;98.20;;;;;;4942021;29;20082;-66
2022/10/27 11:26:35;;;;;;;0.95;0.57;;;18.70;97.00;;;;;;4901316;29;20499;-66
2022/10/27 11:29:39;;;;;;;3.58;0.80;;;18.80;96.30;;;;;;4954644;28;20050;-66
2022/10/27 11:32:18;;;;;;;1.40;0.77;;;18.80;99.90;;;;;;4944668;29;20511;-66
2022/10/27 11:34:50;;;;;;;1.50;0.70;;;18.80;99.40;;;;;;4954954;29;20056;-66
2022/10/27 11:37:19;;;;;;;1.13;0.85;;;18.70;98.70;;;;;;4955255;29;20098;-65
2022/10/27 11:40:01;;;;;;;2.15;0.77;;;18.60;98.90;;;;;;4955114;29;20085;-66
2022/10/27 11:42:30;;;;;;;1.45;0.70;;;18.50;99.90;;;;;;4955174;29;20046;-66
2022/10/27 11:45:39;;;;;;;1.38;0.85;;;18.40;99.90;;;;;;4955155;29;20050;-66
2022/10/27 11:48:21;;;;;;;1.27;0.50;;;18.40;99.40;;;;;;4954711;29;20126;-67
2022/10/27 11:50:53;;;;;;;2.83;0.80;;;18.40;99.90;;;;;;4954968;29;20031;-66
2022/10/27 11:53:19;;;;;;;3.22;0.63;;;18.30;99.90;;;;;;4954957;29;20043;-66
2022/10/27 11:56:16;;;;;;;1.60;0.80;;;18.30;99.90;;;;;;4954864;29;20455;-66
2022/10/27 11:58:57;;;;;;;4.20;0.63;;;18.30;99.90;;;;;;4949041;29;20051;-66
2022/10/27 12:01:48;;;;;;;1.95;0.98;;;18.30;99.90;;;;;;4954661;29;20142;-66
2022/10/27 12:04:38;;;;;;;2.00;0.85;;;18.30;99.90;;;;;;4954909;29;20054;-66
2022/10/27 12:07:10;;;;;;;0.77;0.55;;;18.30;99.90;;;;;;4937314;29;20162;-66
2022/10/27 12:10:14;;;;;;;1.45;0.80;;;18.30;99.90;;;;;;4937219;29;20074;-66
2022/10/27 12:12:51;;;;;;;1.77;0.80;;;18.30;99.90;;;;;;4953723;29;20047;-67
2022/10/27 12:15:38;;;;;;;2.78;0.70;;;18.30;99.90;;;;;;4954415;29;20093;-65
2022/10/27 12:18:23;;;;;;;0.77;0.60;;;18.20;99.90;;;;;;4954313;29;20047;-66
2022/10/27 12:20:54;;;;;;;3.90;0.82;;;18.20;99.90;;;;;;4937090;29;20051;-66
2022/10/27 12:23:28;;;;;;;2.35;0.57;;;18.10;99.90;;;;;;4954633;29;20043;-66
2022/10/27 12:26:09;;;;;;;2.22;0.93;;;18.10;99.90;;;;;;4954243;29;20125;-66
2022/10/27 12:28:36;;;;;;;1.98;0.75;;;18.00;99.90;;;;;;4937276;29;20057;-65
2022/10/27 12:31:05;;;;;;;2.63;1.17;;;17.90;99.90;;;;;;4954100;29;20044;-66
2022/10/27 12:33:59;;;;;;;2.13;0.82;;;17.90;99.90;;;;;;4954493;29;20079;-66
2022/10/27 12:36:48;;;;;;;3.55;0.57;;;17.90;99.90;;;;;;4934336;29;20047;-66
2022/10/27 12:39:42;;;;;;;1.45;0.70;;;17.90;99.90;;;;;;4937207;29;20082;-66
2022/10/27 12:42:10;;;;;;;2.20;0.52;;;18.00;99.90;;;;;;4958191;29;20047;-66
2022/10/27 12:44:54;;;;;;;0.77;0.55;;;18.00;99.90;;;;;;4958363;29;20043;-66
2022/10/27 12:47:35;;;;;;;1.45;0.60;;;18.00;99.90;;;;;;4958622;29;20043;-66
2022/10/27 12:50:24;;;;;;;1.20;0.75;;;18.00;99.90;;;;;;4958129;29;20051;-66
2022/10/27 12:52:57;;;;;;;2.13;0.88;;;18.00;99.90;;;;;;4958227;29;20051;-65
2022/10/27 12:55:50;;;;;;;1.77;0.98;;;18.00;99.90;;;;;;4957943;29;20440;-65
2022/10/27 12:58:34;;;;;;;0.98;0.60;;;18.00;99.90;;;;;;4940656;29;20039;-66
2022/10/27 13:01:11;;;;;;;1.00;0.50;;;18.10;99.90;;;;;;4940676;28;20464;-65
2022/10/27 13:03:46;;;;;;;0.90;0.47;;;18.10;99.90;;;;;;4958040;29;20538;-65
2022/10/27 13:06:21;;;;;;;0.95;0.73;;;18.20;99.90;;;;;;4957732;29;20395;-65